sensor_id;sensor_type;location;lat;lon;timestamp;pressure;altitude;pressure_sealevel;temperature;humidity
70559;BME280;58108;48.094;11.838;2024-03-08T00:02:00;95238.00;;;-1.44;100.00
70559;BME280;58108;48.094;11.838;2024-03-08T00:04:25;95238.94;;;-1.47;100.00
70559;BME280;58108;48.094;11.838;2024-03-08T00:06:51;95245.78;;;-1.46;100.00
70559;BME280;58108;48.094;11.838;2024-03-08T00:09:17;95239.91;;;-1.49;100.00
70559;BME280;58108;48.094;11.838;2024-03-08T00:11:43;95240.41;;;-1.40;100.00
70559;BME280;58108;48.094;11.838;2024-03-08T00:14:08;95239.25;;;-1.56;100.00
70559;BME280;58108;48.094;11.838;2024-03-08T00:16:34;95234.97;;;-1.56;100.00
70559;BME280;58108;48.094;11.838;2024-03-08T00:19:01;95234.28;;;-1.61;100.00
70559;BME280;58108;48.094;11.838;2024-03-08T00:21:26;95240.41;;;-1.65;100.00
70559;BME280;58108;48.094;11.838;2024-03-08T00:23:53;95237.47;;;-1.54;100.00
70559;BME280;58108;48.094;11.838;2024-03-08T00:26:20;95229.88;;;-1.32;100.00
70559;BME280;58108;48.094;11.838;2024-03-08T00:28:48;95231.50;;;-1.55;100.00
70559;BME280;58108;48.094;11.838;2024-03-08T00:31:14;95229.16;;;-1.61;100.00
70559;BME280;58108;48.094;11.838;2024-03-08T00:33:42;95222.97;;;-1.55;100.00
70559;BME280;58108;48.094;11.838;2024-03-08T00:36:08;95224.38;;;-1.72;100.00
70559;BME280;58108;48.094;11.838;2024-03-08T00:38:34;95231.75;;;-1.62;100.00
70559;BME280;58108;48.094;11.838;2024-03-08T00:41:00;95221.63;;;-1.66;100.00
70559;BME280;58108;48.094;11.838;2024-03-08T00:43:25;95222.41;;;-1.63;100.00
70559;BME280;58108;48.094;11.838;2024-03-08T00:45:51;95213.72;;;-1.59;100.00
70559;BME280;58108;48.094;11.838;2024-03-08T00:48:17;95214.72;;;-1.65;100.00
70559;BME280;58108;48.094;11.838;2024-03-08T00:50:43;95213.19;;;-1.69;100.00
70559;BME280;58108;48.094;11.838;2024-03-08T00:53:11;95205.00;;;-1.81;100.00
70559;BME280;58108;48.094;11.838;2024-03-08T00:55:37;95200.84;;;-1.83;100.00
70559;BME280;58108;48.094;11.838;2024-03-08T00:58:04;95204.53;;;-1.92;100.00
70559;BME280;58108;48.094;11.838;2024-03-08T01:00:30;95195.91;;;-1.89;100.00
70559;BME280;58108;48.094;11.838;2024-03-08T01:02:55;95206.22;;;-1.91;100.00
70559;BME280;58108;48.094;11.838;2024-03-08T01:05:22;95196.06;;;-1.94;100.00
70559;BME280;58108;48.094;11.838;2024-03-08T01:07:50;95206.22;;;-1.91;100.00
70559;BME280;58108;48.094;11.838;2024-03-08T01:10:16;95203.75;;;-1.94;100.00
70559;BME280;58108;48.094;11.838;2024-03-08T01:12:41;95196.28;;;-2.00;100.00
70559;BME280;58108;48.094;11.838;2024-03-08T01:15:11;95189.16;;;-1.92;100.00
70559;BME280;58108;48.094;11.838;2024-03-08T01:17:37;95178.97;;;-1.95;100.00
70559;BME280;58108;48.094;11.838;2024-03-08T01:20:04;95183.44;;;-2.00;100.00
70559;BME280;58108;48.094;11.838;2024-03-08T01:22:30;95171.56;;;-2.03;100.00
70559;BME280;58108;48.094;11.838;2024-03-08T01:24:56;95176.31;;;-1.92;100.00
70559;BME280;58108;48.094;11.838;2024-03-08T01:27:22;95172.31;;;-2.01;100.00
70559;BME280;58108;48.094;11.838;2024-03-08T01:29:48;95168.97;;;-2.03;100.00
70559;BME280;58108;48.094;11.838;2024-03-08T01:32:13;95160.28;;;-1.99;100.00
70559;BME280;58108;48.094;11.838;2024-03-08T01:34:40;95163.81;;;-2.01;100.00
70559;BME280;58108;48.094;11.838;2024-03-08T01:37:06;95149.56;;;-2.10;100.00
70559;BME280;58108;48.094;11.838;2024-03-08T01:39:32;95148.66;;;-2.09;100.00
70559;BME280;58108;48.094;11.838;2024-03-08T01:41:59;95149.03;;;-2.20;100.00
70559;BME280;58108;48.094;11.838;2024-03-08T01:44:24;95145.63;;;-2.21;100.00
70559;BME280;58108;48.094;11.838;2024-03-08T01:46:52;95149.81;;;-2.18;100.00
70559;BME280;58108;48.094;11.838;2024-03-08T01:49:19;95135.00;;;-2.10;100.00
70559;BME280;58108;48.094;11.838;2024-03-08T01:51:47;95133.56;;;-2.17;100.00
70559;BME280;58108;48.094;11.838;2024-03-08T01:54:14;95136.97;;;-2.18;100.00
70559;BME280;58108;48.094;11.838;2024-03-08T01:56:42;95131.81;;;-2.16;100.00
70559;BME280;58108;48.094;11.838;2024-03-08T01:59:08;95128.66;;;-2.25;100.00
70559;BME280;58108;48.094;11.838;2024-03-08T02:01:34;95127.38;;;-2.11;100.00
70559;BME280;58108;48.094;11.838;2024-03-08T02:04:00;95122.59;;;-2.22;100.00
70559;BME280;58108;48.094;11.838;2024-03-08T02:06:25;95116.78;;;-2.27;100.00
70559;BME280;58108;48.094;11.838;2024-03-08T02:08:51;95117.50;;;-2.24;100.00
70559;BME280;58108;48.094;11.838;2024-03-08T02:11:17;95110.72;;;-2.25;100.00
70559;BME280;58108;48.094;11.838;2024-03-08T02:13:44;95109.50;;;-2.14;100.00
70559;BME280;58108;48.094;11.838;2024-03-08T02:16:09;95106.84;;;-2.11;100.00
70559;BME280;58108;48.094;11.838;2024-03-08T02:18:36;95107.22;;;-2.22;100.00
70559;BME280;58108;48.094;11.838;2024-03-08T02:21:03;95105.63;;;-2.26;100.00
70559;BME280;58108;48.094;11.838;2024-03-08T02:23:29;95109.03;;;-2.26;100.00
70559;BME280;58108;48.094;11.838;2024-03-08T02:25:56;95108.78;;;-2.18;100.00
70559;BME280;58108;48.094;11.838;2024-03-08T02:28:22;95105.34;;;-2.17;100.00
70559;BME280;58108;48.094;11.838;2024-03-08T02:30:51;95103.75;;;-2.21;100.00
70559;BME280;58108;48.094;11.838;2024-03-08T02:33:21;95103.44;;;-2.12;100.00
70559;BME280;58108;48.094;11.838;2024-03-08T02:35:48;95101.94;;;-2.17;100.00
70559;BME280;58108;48.094;11.838;2024-03-08T02:38:15;95098.38;;;-2.13;100.00
70559;BME280;58108;48.094;11.838;2024-03-08T02:40:49;95097.41;;;-2.11;100.00
70559;BME280;58108;48.094;11.838;2024-03-08T02:43:15;95087.22;;;-2.12;100.00
70559;BME280;58108;48.094;11.838;2024-03-08T02:45:42;95088.78;;;-2.08;100.00
70559;BME280;58108;48.094;11.838;2024-03-08T02:48:08;95084.69;;;-2.14;100.00
70559;BME280;58108;48.094;11.838;2024-03-08T02:50:34;95085.59;;;-2.15;100.00
70559;BME280;58108;48.094;11.838;2024-03-08T02:53:00;95082.81;;;-2.09;100.00
70559;BME280;58108;48.094;11.838;2024-03-08T02:55:26;95082.09;;;-2.12;100.00
70559;BME280;58108;48.094;11.838;2024-03-08T02:57:52;95081.03;;;-2.07;100.00
70559;BME280;58108;48.094;11.838;2024-03-08T03:00:20;95087.09;;;-2.09;100.00
70559;BME280;58108;48.094;11.838;2024-03-08T03:02:47;95080.13;;;-2.06;100.00
70559;BME280;58108;48.094;11.838;2024-03-08T03:05:12;95080.31;;;-2.10;100.00
70559;BME280;58108;48.094;11.838;2024-03-08T03:07:38;95073.22;;;-2.03;100.00
70559;BME280;58108;48.094;11.838;2024-03-08T03:10:04;95081.72;;;-2.01;100.00
70559;BME280;58108;48.094;11.838;2024-03-08T03:12:31;95079.53;;;-2.12;100.00
70559;BME280;58108;48.094;11.838;2024-03-08T03:14:57;95077.16;;;-2.18;100.00
70559;BME280;58108;48.094;11.838;2024-03-08T03:17:23;95088.13;;;-2.13;100.00
70559;BME280;58108;48.094;11.838;2024-03-08T03:19:53;95088.97;;;-2.14;100.00
70559;BME280;58108;48.094;11.838;2024-03-08T03:22:19;95085.44;;;-2.10;100.00
70559;BME280;58108;48.094;11.838;2024-03-08T03:24:45;95085.22;;;-2.04;100.00
70559;BME280;58108;48.094;11.838;2024-03-08T03:27:14;95083.13;;;-2.18;100.00
70559;BME280;58108;48.094;11.838;2024-03-08T03:29:41;95079.34;;;-2.31;100.00
70559;BME280;58108;48.094;11.838;2024-03-08T03:32:14;95080.09;;;-2.29;100.00
70559;BME280;58108;48.094;11.838;2024-03-08T03:34:40;95074.28;;;-2.35;100.00
70559;BME280;58108;48.094;11.838;2024-03-08T03:37:07;95080.28;;;-2.34;100.00
70559;BME280;58108;48.094;11.838;2024-03-08T03:39:34;95079.25;;;-2.30;100.00
70559;BME280;58108;48.094;11.838;2024-03-08T03:42:03;95076.91;;;-2.36;100.00
70559;BME280;58108;48.094;11.838;2024-03-08T03:44:28;95076.16;;;-2.40;100.00
70559;BME280;58108;48.094;11.838;2024-03-08T03:46:54;95075.88;;;-2.30;100.00
70559;BME280;58108;48.094;11.838;2024-03-08T03:49:20;95076.44;;;-2.22;100.00
70559;BME280;58108;48.094;11.838;2024-03-08T03:51:46;95075.91;;;-2.32;100.00
70559;BME280;58108;48.094;11.838;2024-03-08T03:54:12;95077.50;;;-2.28;100.00
70559;BME280;58108;48.094;11.838;2024-03-08T03:56:38;95076.84;;;-2.35;100.00
70559;BME280;58108;48.094;11.838;2024-03-08T03:59:05;95071.94;;;-2.41;100.00
70559;BME280;58108;48.094;11.838;2024-03-08T04:01:32;95075.75;;;-2.27;100.00
70559;BME280;58108;48.094;11.838;2024-03-08T04:03:58;95069.00;;;-2.30;100.00
70559;BME280;58108;48.094;11.838;2024-03-08T04:06:24;95069.91;;;-2.31;100.00
70559;BME280;58108;48.094;11.838;2024-03-08T04:08:49;95067.59;;;-2.39;100.00
70559;BME280;58108;48.094;11.838;2024-03-08T04:11:15;95054.31;;;-2.25;100.00
70559;BME280;58108;48.094;11.838;2024-03-08T04:13:45;95053.94;;;-2.39;100.00
70559;BME280;58108;48.094;11.838;2024-03-08T04:16:10;95052.97;;;-2.35;100.00
70559;BME280;58108;48.094;11.838;2024-03-08T04:18:37;95057.03;;;-2.29;100.00
70559;BME280;58108;48.094;11.838;2024-03-08T04:21:06;95060.06;;;-2.43;100.00
70559;BME280;58108;48.094;11.838;2024-03-08T04:23:33;95056.38;;;-2.36;100.00
70559;BME280;58108;48.094;11.838;2024-03-08T04:26:02;95059.63;;;-2.31;100.00
70559;BME280;58108;48.094;11.838;2024-03-08T04:28:28;95056.19;;;-2.30;100.00
70559;BME280;58108;48.094;11.838;2024-03-08T04:30:54;95058.38;;;-2.19;100.00
70559;BME280;58108;48.094;11.838;2024-03-08T04:33:20;95061.13;;;-2.25;100.00
70559;BME280;58108;48.094;11.838;2024-03-08T04:35:47;95051.75;;;-2.01;100.00
70559;BME280;58108;48.094;11.838;2024-03-08T04:38:12;95057.25;;;-2.12;100.00
70559;BME280;58108;48.094;11.838;2024-03-08T04:40:38;95050.25;;;-2.07;100.00
70559;BME280;58108;48.094;11.838;2024-03-08T04:43:05;95051.78;;;-2.02;100.00
70559;BME280;58108;48.094;11.838;2024-03-08T04:45:30;95049.56;;;-1.88;100.00
70559;BME280;58108;48.094;11.838;2024-03-08T04:47:56;95044.91;;;-2.00;100.00
70559;BME280;58108;48.094;11.838;2024-03-08T04:50:22;95039.44;;;-2.15;100.00
70559;BME280;58108;48.094;11.838;2024-03-08T04:52:47;95043.81;;;-2.18;100.00
70559;BME280;58108;48.094;11.838;2024-03-08T04:55:14;95050.75;;;-2.21;100.00
70559;BME280;58108;48.094;11.838;2024-03-08T04:57:39;95042.00;;;-2.15;100.00
70559;BME280;58108;48.094;11.838;2024-03-08T05:00:07;95040.81;;;-2.06;100.00
70559;BME280;58108;48.094;11.838;2024-03-08T05:02:37;95041.16;;;-2.15;100.00
70559;BME280;58108;48.094;11.838;2024-03-08T05:05:05;95041.28;;;-1.95;100.00
70559;BME280;58108;48.094;11.838;2024-03-08T05:07:31;95038.38;;;-2.09;100.00
70559;BME280;58108;48.094;11.838;2024-03-08T05:09:59;95040.81;;;-2.06;100.00
70559;BME280;58108;48.094;11.838;2024-03-08T05:12:24;95043.44;;;-2.08;100.00
70559;BME280;58108;48.094;11.838;2024-03-08T05:14:50;95041.44;;;-1.99;100.00
70559;BME280;58108;48.094;11.838;2024-03-08T05:17:16;95037.63;;;-2.13;100.00
70559;BME280;58108;48.094;11.838;2024-03-08T05:19:45;95043.66;;;-1.90;100.00
70559;BME280;58108;48.094;11.838;2024-03-08T05:22:10;95035.47;;;-2.00;100.00
70559;BME280;58108;48.094;11.838;2024-03-08T05:24:36;95041.28;;;-1.95;100.00
70559;BME280;58108;48.094;11.838;2024-03-08T05:27:02;95039.47;;;-1.93;100.00
70559;BME280;58108;48.094;11.838;2024-03-08T05:29:29;95027.88;;;-1.79;100.00
70559;BME280;58108;48.094;11.838;2024-03-08T05:31:55;95030.78;;;-1.88;100.00
70559;BME280;58108;48.094;11.838;2024-03-08T05:34:22;95029.50;;;-2.00;100.00
70559;BME280;58108;48.094;11.838;2024-03-08T05:36:48;95030.44;;;-2.03;100.00
70559;BME280;58108;48.094;11.838;2024-03-08T05:39:19;95033.00;;;-1.79;100.00
70559;BME280;58108;48.094;11.838;2024-03-08T05:41:48;95033.19;;;-1.84;100.00
70559;BME280;58108;48.094;11.838;2024-03-08T05:44:14;95023.41;;;-1.52;100.00
70559;BME280;58108;48.094;11.838;2024-03-08T05:46:42;95025.19;;;-1.76;100.00
70559;BME280;58108;48.094;11.838;2024-03-08T05:49:08;95014.84;;;-1.97;100.00
70559;BME280;58108;48.094;11.838;2024-03-08T05:51:36;95014.34;;;-2.07;100.00
70559;BME280;58108;48.094;11.838;2024-03-08T05:54:03;95023.31;;;-1.95;100.00
70559;BME280;58108;48.094;11.838;2024-03-08T05:56:33;95020.13;;;-1.77;100.00
70559;BME280;58108;48.094;11.838;2024-03-08T05:58:59;95013.78;;;-1.91;100.00
70559;BME280;58108;48.094;11.838;2024-03-08T06:01:26;95014.00;;;-1.97;100.00
70559;BME280;58108;48.094;11.838;2024-03-08T06:03:52;95016.78;;;-2.03;100.00
70559;BME280;58108;48.094;11.838;2024-03-08T06:06:21;95014.88;;;-1.98;100.00
70559;BME280;58108;48.094;11.838;2024-03-08T06:08:48;95012.53;;;-1.81;100.00
70559;BME280;58108;48.094;11.838;2024-03-08T06:11:15;95015.38;;;-1.88;100.00
70559;BME280;58108;48.094;11.838;2024-03-08T06:13:42;95016.72;;;-1.78;100.00
70559;BME280;58108;48.094;11.838;2024-03-08T06:16:08;95011.88;;;-1.63;100.00
70559;BME280;58108;48.094;11.838;2024-03-08T06:18:34;95010.81;;;-1.80;100.00
70559;BME280;58108;48.094;11.838;2024-03-08T06:21:03;95018.16;;;-1.71;100.00
70559;BME280;58108;48.094;11.838;2024-03-08T06:23:32;95017.16;;;-1.67;100.00
70559;BME280;58108;48.094;11.838;2024-03-08T06:25:57;95007.66;;;-1.87;100.00
70559;BME280;58108;48.094;11.838;2024-03-08T06:28:23;95013.50;;;-1.83;100.00
70559;BME280;58108;48.094;11.838;2024-03-08T06:30:48;95019.00;;;-1.70;100.00
70559;BME280;58108;48.094;11.838;2024-03-08T06:33:16;95020.09;;;-1.54;100.00
70559;BME280;58108;48.094;11.838;2024-03-08T06:35:41;95012.31;;;-1.52;100.00
70559;BME280;58108;48.094;11.838;2024-03-08T06:38:07;95012.38;;;-1.54;100.00
70559;BME280;58108;48.094;11.838;2024-03-08T06:40:33;95014.66;;;-1.46;100.00
70559;BME280;58108;48.094;11.838;2024-03-08T06:42:58;95011.78;;;-1.60;100.00
70559;BME280;58108;48.094;11.838;2024-03-08T06:45:24;95012.56;;;-1.58;100.00
70559;BME280;58108;48.094;11.838;2024-03-08T06:47:51;95013.69;;;-1.66;100.00
70559;BME280;58108;48.094;11.838;2024-03-08T06:50:17;95012.56;;;-1.58;100.00
70559;BME280;58108;48.094;11.838;2024-03-08T06:52:42;95017.94;;;-1.65;100.00
70559;BME280;58108;48.094;11.838;2024-03-08T06:55:09;95018.78;;;-1.42;100.00
70559;BME280;58108;48.094;11.838;2024-03-08T06:57:41;95014.16;;;-1.33;100.00
70559;BME280;58108;48.094;11.838;2024-03-08T07:00:07;95011.78;;;-1.38;100.00
70559;BME280;58108;48.094;11.838;2024-03-08T07:02:41;95019.63;;;-1.41;100.00
70559;BME280;58108;48.094;11.838;2024-03-08T07:05:07;95018.31;;;-1.29;100.00
70559;BME280;58108;48.094;11.838;2024-03-08T07:07:36;95016.44;;;-1.26;100.00
70559;BME280;58108;48.094;11.838;2024-03-08T07:10:01;95016.38;;;-1.24;100.00
70559;BME280;58108;48.094;11.838;2024-03-08T07:12:27;95018.16;;;-1.04;100.00
70559;BME280;58108;48.094;11.838;2024-03-08T07:14:53;95014.69;;;-1.03;100.00
70559;BME280;58108;48.094;11.838;2024-03-08T07:17:18;95014.75;;;-1.04;100.00
70559;BME280;58108;48.094;11.838;2024-03-08T07:19:44;95009.88;;;-0.90;100.00
70559;BME280;58108;48.094;11.838;2024-03-08T07:22:10;95018.78;;;-0.99;100.00
70559;BME280;58108;48.094;11.838;2024-03-08T07:24:36;95012.88;;;-0.78;100.00
70559;BME280;58108;48.094;11.838;2024-03-08T07:27:05;95004.88;;;-0.72;100.00
70559;BME280;58108;48.094;11.838;2024-03-08T07:29:32;95008.22;;;-0.91;100.00
70559;BME280;58108;48.094;11.838;2024-03-08T07:31:58;95000.03;;;-1.01;100.00
70559;BME280;58108;48.094;11.838;2024-03-08T07:34:30;95001.78;;;-0.80;100.00
70559;BME280;58108;48.094;11.838;2024-03-08T07:36:58;94998.97;;;-0.74;100.00
70559;BME280;58108;48.094;11.838;2024-03-08T07:39:23;94998.91;;;-0.73;100.00
70559;BME280;58108;48.094;11.838;2024-03-08T07:41:49;94998.69;;;-0.89;100.00
70559;BME280;58108;48.094;11.838;2024-03-08T07:44:18;94998.31;;;-0.79;100.00
70559;BME280;58108;48.094;11.838;2024-03-08T07:46:44;95001.38;;;-0.50;100.00
70559;BME280;58108;48.094;11.838;2024-03-08T07:49:10;94990.66;;;-0.60;100.00
70559;BME280;58108;48.094;11.838;2024-03-08T07:51:37;94999.41;;;-0.64;100.00
70559;BME280;58108;48.094;11.838;2024-03-08T07:54:04;94996.50;;;-0.57;100.00
70559;BME280;58108;48.094;11.838;2024-03-08T07:56:30;94995.56;;;-0.75;100.00
70559;BME280;58108;48.094;11.838;2024-03-08T07:58:56;94999.22;;;-0.60;100.00
70559;BME280;58108;48.094;11.838;2024-03-08T08:01:22;95001.13;;;-0.23;100.00
70559;BME280;58108;48.094;11.838;2024-03-08T08:03:47;94999.09;;;-0.17;100.00
70559;BME280;58108;48.094;11.838;2024-03-08T08:06:16;94993.88;;;-0.15;100.00
70559;BME280;58108;48.094;11.838;2024-03-08T08:08:42;94991.97;;;0.09;100.00
70559;BME280;58108;48.094;11.838;2024-03-08T08:11:08;94988.69;;;-0.13;100.00
70559;BME280;58108;48.094;11.838;2024-03-08T08:13:35;94989.13;;;-0.04;100.00
70559;BME280;58108;48.094;11.838;2024-03-08T08:16:02;94987.38;;;0.16;100.00
70559;BME280;58108;48.094;11.838;2024-03-08T08:18:28;94990.09;;;0.13;100.00
70559;BME280;58108;48.094;11.838;2024-03-08T08:20:55;94976.00;;;0.39;100.00
70559;BME280;58108;48.094;11.838;2024-03-08T08:23:21;94984.75;;;0.54;100.00
70559;BME280;58108;48.094;11.838;2024-03-08T08:25:47;94976.28;;;0.52;100.00
70559;BME280;58108;48.094;11.838;2024-03-08T08:28:16;94973.03;;;0.66;100.00
70559;BME280;58108;48.094;11.838;2024-03-08T08:30:43;94971.41;;;0.83;100.00
70559;BME280;58108;48.094;11.838;2024-03-08T08:33:09;94966.72;;;0.91;100.00
70559;BME280;58108;48.094;11.838;2024-03-08T08:35:39;94963.16;;;0.94;100.00
70559;BME280;58108;48.094;11.838;2024-03-08T08:38:04;94962.81;;;1.00;100.00
70559;BME280;58108;48.094;11.838;2024-03-08T08:40:30;94956.56;;;1.06;100.00
70559;BME280;58108;48.094;11.838;2024-03-08T08:42:58;94956.25;;;1.30;100.00
70559;BME280;58108;48.094;11.838;2024-03-08T08:45:23;94950.88;;;1.17;100.00
70559;BME280;58108;48.094;11.838;2024-03-08T08:47:49;94947.75;;;1.28;100.00
70559;BME280;58108;48.094;11.838;2024-03-08T08:50:15;94950.94;;;1.15;100.00
70559;BME280;58108;48.094;11.838;2024-03-08T08:52:42;94950.28;;;1.45;100.00
70559;BME280;58108;48.094;11.838;2024-03-08T08:55:09;94948.84;;;1.57;100.00
70559;BME280;58108;48.094;11.838;2024-03-08T08:57:36;94948.66;;;1.60;100.00
70559;BME280;58108;48.094;11.838;2024-03-08T09:00:03;94946.97;;;1.77;100.00
70559;BME280;58108;48.094;11.838;2024-03-08T09:02:33;94945.06;;;1.81;100.00
70559;BME280;58108;48.094;11.838;2024-03-08T09:04:59;94936.97;;;1.71;100.00
70559;BME280;58108;48.094;11.838;2024-03-08T09:07:26;94939.69;;;1.68;100.00
70559;BME280;58108;48.094;11.838;2024-03-08T09:09:53;94938.06;;;1.83;100.00
70559;BME280;58108;48.094;11.838;2024-03-08T09:12:24;94932.41;;;1.92;100.00
70559;BME280;58108;48.094;11.838;2024-03-08T09:14:49;94937.19;;;2.00;100.00
70559;BME280;58108;48.094;11.838;2024-03-08T09:17:15;94934.16;;;2.08;100.00
70559;BME280;58108;48.094;11.838;2024-03-08T09:19:46;94923.41;;;2.31;100.00
70559;BME280;58108;48.094;11.838;2024-03-08T09:22:13;94919.34;;;2.43;100.00
70559;BME280;58108;48.094;11.838;2024-03-08T09:24:39;94924.53;;;2.58;100.00
70559;BME280;58108;48.094;11.838;2024-03-08T09:27:05;94929.69;;;2.43;100.00
70559;BME280;58108;48.094;11.838;2024-03-08T09:29:30;94922.53;;;2.63;100.00
70559;BME280;58108;48.094;11.838;2024-03-08T09:31:56;94920.94;;;2.77;100.00
70559;BME280;58108;48.094;11.838;2024-03-08T09:34:22;94919.28;;;2.76;100.00
70559;BME280;58108;48.094;11.838;2024-03-08T09:36:47;94914.28;;;3.03;98.58
70559;BME280;58108;48.094;11.838;2024-03-08T09:39:13;94911.88;;;3.00;98.86
70559;BME280;58108;48.094;11.838;2024-03-08T09:41:45;94904.81;;;3.47;99.16
70559;BME280;58108;48.094;11.838;2024-03-08T09:44:15;94903.06;;;3.48;96.85
70559;BME280;58108;48.094;11.838;2024-03-08T09:46:41;94902.22;;;3.47;95.95
70559;BME280;58108;48.094;11.838;2024-03-08T09:49:08;94906.75;;;3.73;95.03
70559;BME280;58108;48.094;11.838;2024-03-08T09:51:34;94906.94;;;3.69;94.33
70559;BME280;58108;48.094;11.838;2024-03-08T09:54:05;94900.56;;;3.75;94.36
70559;BME280;58108;48.094;11.838;2024-03-08T09:56:34;94893.31;;;4.09;94.78
70559;BME280;58108;48.094;11.838;2024-03-08T09:59:00;94899.56;;;4.20;92.95
70559;BME280;58108;48.094;11.838;2024-03-08T10:01:45;94893.75;;;4.16;91.14
70559;BME280;58108;48.094;11.838;2024-03-08T10:04:11;94889.06;;;4.36;89.69
70559;BME280;58108;48.094;11.838;2024-03-08T10:06:37;94886.81;;;4.44;90.27
70559;BME280;58108;48.094;11.838;2024-03-08T10:09:02;94882.25;;;4.75;90.01
70559;BME280;58108;48.094;11.838;2024-03-08T10:11:28;94882.66;;;4.82;90.29
70559;BME280;58108;48.094;11.838;2024-03-08T10:13:54;94882.59;;;4.97;91.09
70559;BME280;58108;48.094;11.838;2024-03-08T10:16:20;94882.50;;;5.11;88.24
70559;BME280;58108;48.094;11.838;2024-03-08T10:18:45;94882.09;;;5.17;87.72
70559;BME280;58108;48.094;11.838;2024-03-08T10:21:11;94879.09;;;5.24;87.06
70559;BME280;58108;48.094;11.838;2024-03-08T10:23:39;94877.31;;;5.11;85.76
70559;BME280;58108;48.094;11.838;2024-03-08T10:26:15;94868.94;;;5.20;85.18
70559;BME280;58108;48.094;11.838;2024-03-08T10:28:47;94867.16;;;5.34;85.53
70559;BME280;58108;48.094;11.838;2024-03-08T10:31:16;94862.28;;;5.29;84.39
70559;BME280;58108;48.094;11.838;2024-03-08T10:33:42;94858.81;;;5.81;84.98
70559;BME280;58108;48.094;11.838;2024-03-08T10:36:10;94860.03;;;5.75;80.57
70559;BME280;58108;48.094;11.838;2024-03-08T10:38:41;94861.56;;;5.91;82.30
70559;BME280;58108;48.094;11.838;2024-03-08T10:41:09;94857.53;;;5.86;81.50
70559;BME280;58108;48.094;11.838;2024-03-08T10:43:56;94856.31;;;5.79;79.85
70559;BME280;58108;48.094;11.838;2024-03-08T10:49:25;94844.13;;;6.30;79.48
70559;BME280;58108;48.094;11.838;2024-03-08T10:51:56;94846.31;;;5.99;78.85
70559;BME280;58108;48.094;11.838;2024-03-08T10:54:23;94848.28;;;6.33;81.93
70559;BME280;58108;48.094;11.838;2024-03-08T10:56:51;94847.94;;;6.62;75.71
70559;BME280;58108;48.094;11.838;2024-03-08T10:59:18;94843.69;;;6.12;77.03
70559;BME280;58108;48.094;11.838;2024-03-08T11:01:44;94844.94;;;6.55;78.34
70559;BME280;58108;48.094;11.838;2024-03-08T11:04:10;94844.59;;;6.95;76.07
70559;BME280;58108;48.094;11.838;2024-03-08T11:09:01;94836.59;;;6.63;76.04
70559;BME280;58108;48.094;11.838;2024-03-08T11:11:28;94840.03;;;7.22;77.16
70559;BME280;58108;48.094;11.838;2024-03-08T11:13:58;94832.81;;;7.14;74.29
70559;BME280;58108;48.094;11.838;2024-03-08T11:21:38;94824.19;;;7.25;72.73
70559;BME280;58108;48.094;11.838;2024-03-08T11:24:10;94815.56;;;7.59;71.72
70559;BME280;58108;48.094;11.838;2024-03-08T11:26:40;94809.50;;;7.92;69.55
70559;BME280;58108;48.094;11.838;2024-03-08T11:32:26;94797.63;;;7.88;68.06
70559;BME280;58108;48.094;11.838;2024-03-08T11:34:53;94795.59;;;8.80;65.01
70559;BME280;58108;48.094;11.838;2024-03-08T11:37:20;94789.59;;;8.68;63.85
70559;BME280;58108;48.094;11.838;2024-03-08T11:39:50;94791.69;;;8.96;60.63
70559;BME280;58108;48.094;11.838;2024-03-08T11:42:17;94791.25;;;10.55;56.78
70559;BME280;58108;48.094;11.838;2024-03-08T11:44:44;94779.25;;;10.32;56.68
70559;BME280;58108;48.094;11.838;2024-03-08T11:47:10;94783.81;;;11.37;56.20
70559;BME280;58108;48.094;11.838;2024-03-08T11:49:37;94769.94;;;12.39;53.28
70559;BME280;58108;48.094;11.838;2024-03-08T11:52:03;94779.00;;;12.26;48.49
70559;BME280;58108;48.094;11.838;2024-03-08T11:54:29;94773.59;;;13.35;50.52
70559;BME280;58108;48.094;11.838;2024-03-08T11:56:56;94771.84;;;12.19;48.55
70559;BME280;58108;48.094;11.838;2024-03-08T11:59:29;94765.03;;;12.44;52.12
70559;BME280;58108;48.094;11.838;2024-03-08T12:02:01;94763.66;;;13.74;45.09
70559;BME280;58108;48.094;11.838;2024-03-08T12:04:27;94759.75;;;12.08;49.16
70559;BME280;58108;48.094;11.838;2024-03-08T12:06:53;94762.59;;;12.87;48.19
70559;BME280;58108;48.094;11.838;2024-03-08T12:09:18;94759.22;;;12.95;46.67
70559;BME280;58108;48.094;11.838;2024-03-08T12:11:48;94750.47;;;12.68;48.42
70559;BME280;58108;48.094;11.838;2024-03-08T12:14:14;94754.16;;;12.57;46.89
70559;BME280;58108;48.094;11.838;2024-03-08T12:16:41;94741.06;;;14.14;43.81
70559;BME280;58108;48.094;11.838;2024-03-08T12:19:08;94745.00;;;13.59;46.21
70559;BME280;58108;48.094;11.838;2024-03-08T12:21:35;94738.31;;;14.49;44.29
70559;BME280;58108;48.094;11.838;2024-03-08T12:24:06;94742.81;;;14.73;43.25
70559;BME280;58108;48.094;11.838;2024-03-08T12:26:36;94729.66;;;13.97;45.34
70559;BME280;58108;48.094;11.838;2024-03-08T12:29:24;94730.22;;;12.60;42.90
70559;BME280;58108;48.094;11.838;2024-03-08T12:31:59;94718.34;;;14.05;42.30
70559;BME280;58108;48.094;11.838;2024-03-08T12:34:26;94720.09;;;15.45;41.08
70559;BME280;58108;48.094;11.838;2024-03-08T12:36:58;94709.47;;;15.06;41.99
70559;BME280;58108;48.094;11.838;2024-03-08T12:39:24;94710.81;;;15.01;42.32
70559;BME280;58108;48.094;11.838;2024-03-08T12:41:53;94709.03;;;14.85;40.20
70559;BME280;58108;48.094;11.838;2024-03-08T12:44:20;94698.06;;;13.89;40.59
70559;BME280;58108;48.094;11.838;2024-03-08T12:46:47;94706.56;;;14.75;40.81
70559;BME280;58108;48.094;11.838;2024-03-08T12:49:14;94695.50;;;15.45;40.19
70559;BME280;58108;48.094;11.838;2024-03-08T12:51:46;94687.03;;;15.66;40.04
70559;BME280;58108;48.094;11.838;2024-03-08T12:54:12;94688.41;;;14.06;42.05
70559;BME280;58108;48.094;11.838;2024-03-08T12:56:38;94685.00;;;13.27;41.77
70559;BME280;58108;48.094;11.838;2024-03-08T12:59:06;94684.50;;;13.59;41.56